createdAt,value
2023-04-17T00:01:46.368Z,25.23
2023-04-17T00:04:32.035Z,24.83
2023-04-17T00:07:22.739Z,25.35
2023-04-17T00:10:10.080Z,25.45
2023-04-17T00:12:55.347Z,27.30
2023-04-17T00:15:40.758Z,26.40
2023-04-17T00:18:26.327Z,26.88
2023-04-17T00:21:11.446Z,26.25
2023-04-17T00:23:56.770Z,27.10
2023-04-17T00:26:42.362Z,27.08
2023-04-17T00:29:27.782Z,26.92
2023-04-17T00:32:13.828Z,27.23
2023-04-17T00:34:59.189Z,27.08
2023-04-17T00:37:44.547Z,23.65
2023-04-17T00:40:30.137Z,24.77
2023-04-17T00:43:15.700Z,24.25
2023-04-17T00:46:02.114Z,21.70
2023-04-17T00:48:48.402Z,23.50
2023-04-17T00:51:34.138Z,21.92
2023-04-17T00:54:22.404Z,21.38
2023-04-17T00:57:07.998Z,21.58
2023-04-17T00:59:54.250Z,20.52
2023-04-17T01:02:40.171Z,21.15
2023-04-17T01:05:27.345Z,23.10
2023-04-17T01:08:12.551Z,21.83
2023-04-17T01:10:58.117Z,22.63
2023-04-17T01:13:45.716Z,22.45
2023-04-17T01:16:31.044Z,23.70
2023-04-17T01:19:17.492Z,20.70
2023-04-17T01:22:02.770Z,21.08
2023-04-17T01:24:50.306Z,22.00
2023-04-17T01:27:35.691Z,21.85
2023-04-17T01:30:21.364Z,23.08
2023-04-17T01:33:15.905Z,23.58
2023-04-17T01:36:01.442Z,22.58
2023-04-17T01:38:46.963Z,23.80
2023-04-17T01:41:32.574Z,23.58
2023-04-17T01:44:18.288Z,22.08
2023-04-17T01:47:03.716Z,21.08
2023-04-17T01:49:49.128Z,22.20
2023-04-17T01:52:34.870Z,22.52
2023-04-17T01:55:20.368Z,22.52
2023-04-17T01:58:05.852Z,23.02
2023-04-17T02:00:51.892Z,23.25
2023-04-17T02:03:37.788Z,20.15
2023-04-17T02:06:23.205Z,22.75
2023-04-17T02:09:08.977Z,24.85
2023-04-17T02:11:57.426Z,23.88
2023-04-17T02:14:43.009Z,22.17
2023-04-17T02:17:28.106Z,27.52
2023-04-17T02:20:14.298Z,25.52
2023-04-17T02:23:00.589Z,24.42
2023-04-17T02:25:46.278Z,23.63
2023-04-17T02:28:33.734Z,23.73
2023-04-17T02:31:20.688Z,22.90
2023-04-17T02:34:06.328Z,20.48
2023-04-17T02:36:52.546Z,22.33
2023-04-17T02:39:39.832Z,21.73
2023-04-17T02:42:25.393Z,23.08
2023-04-17T02:45:11.305Z,22.40
2023-04-17T02:47:58.454Z,20.38
2023-04-17T02:50:43.979Z,20.35
2023-04-17T02:53:34.003Z,19.27
2023-04-17T02:56:19.241Z,18.65
2023-04-17T02:59:04.740Z,20.85
2023-04-17T03:01:50.820Z,19.25
2023-04-17T03:04:38.947Z,18.58
2023-04-17T03:07:27.347Z,18.33
2023-04-17T03:10:12.504Z,17.80
2023-04-17T03:12:57.807Z,16.88
2023-04-17T03:15:43.220Z,17.08
2023-04-17T03:18:28.445Z,16.83
2023-04-17T03:21:14.281Z,17.17
2023-04-17T03:23:59.597Z,17.85
2023-04-17T03:26:44.895Z,16.58
2023-04-17T03:29:35.247Z,16.02
2023-04-17T03:32:21.079Z,15.40
2023-04-17T03:35:07.061Z,18.02
2023-04-17T03:37:52.737Z,17.95
2023-04-17T03:40:38.165Z,18.13
2023-04-17T03:43:24.207Z,16.52
2023-04-17T03:46:09.972Z,15.95
2023-04-17T03:48:57.099Z,14.50
2023-04-17T03:51:42.750Z,16.75
2023-04-17T03:54:36.721Z,15.88
2023-04-17T03:57:24.087Z,14.73
2023-04-17T04:00:12.757Z,15.77
2023-04-17T04:03:04.622Z,15.88
2023-04-17T04:05:57.189Z,16.52
2023-04-17T04:08:42.503Z,17.02
2023-04-17T04:11:28.208Z,15.60
2023-04-17T04:14:13.550Z,16.50
2023-04-17T04:16:59.674Z,16.85
2023-04-17T04:19:45.999Z,17.63
2023-04-17T04:22:31.282Z,16.65
2023-04-17T04:25:17.214Z,17.17
2023-04-17T04:28:10.369Z,17.33
2023-04-17T04:30:58.565Z,17.17
2023-04-17T04:33:47.856Z,16.27
2023-04-17T04:36:36.339Z,16.40
2023-04-17T04:39:41.762Z,18.77
2023-04-17T04:42:29.364Z,18.23
2023-04-17T04:45:25.857Z,19.33
2023-04-17T04:48:11.719Z,20.52
2023-04-17T04:50:57.295Z,20.77
2023-04-17T04:53:43.076Z,20.58
2023-04-17T04:56:32.934Z,20.60
2023-04-17T04:59:18.491Z,21.33
2023-04-17T05:02:13.380Z,20.13
2023-04-17T05:04:58.975Z,20.50
2023-04-17T05:07:44.456Z,20.20
2023-04-17T05:10:32.907Z,21.77
2023-04-17T05:13:21.906Z,21.35
2023-04-17T05:16:07.938Z,21.23
2023-04-17T05:18:53.593Z,22.00
2023-04-17T05:21:48.905Z,20.92
2023-04-17T05:24:36.773Z,21.67
2023-04-17T05:27:22.161Z,21.25
2023-04-17T05:30:08.727Z,21.48
2023-04-17T05:32:54.707Z,22.48
2023-04-17T05:35:49.906Z,22.98
2023-04-17T05:38:35.383Z,22.85
2023-04-17T05:41:24.312Z,21.90
2023-04-17T05:44:09.885Z,22.73
2023-04-17T05:46:57.472Z,23.20
2023-04-17T05:49:43.857Z,22.20
2023-04-17T05:52:29.257Z,22.90
2023-04-17T05:55:15.340Z,21.88
2023-04-17T05:58:10.439Z,24.83
2023-04-17T06:01:08.438Z,23.23
2023-04-17T06:03:54.034Z,24.02
2023-04-17T06:06:44.239Z,24.88
2023-04-17T06:09:29.934Z,24.08
2023-04-17T06:12:16.172Z,24.15
2023-04-17T06:15:09.223Z,23.35
2023-04-17T06:17:56.404Z,24.35
2023-04-17T06:20:42.190Z,24.35
2023-04-17T06:23:27.728Z,24.52
2023-04-17T06:26:13.793Z,23.20
2023-04-17T06:28:59.145Z,23.65
2023-04-17T06:31:46.430Z,25.63
2023-04-17T06:34:34.371Z,25.90
2023-04-17T06:37:19.875Z,25.40
2023-04-17T06:40:07.105Z,24.58
2023-04-17T06:42:52.562Z,24.95
2023-04-17T06:45:42.347Z,25.17
2023-04-17T06:48:28.009Z,24.85
2023-04-17T06:51:13.271Z,23.38
2023-04-17T06:53:59.360Z,22.92
2023-04-17T06:56:44.498Z,23.25
2023-04-17T06:59:29.864Z,23.35
2023-04-17T07:02:15.688Z,23.48
2023-04-17T07:05:01.476Z,22.50
2023-04-17T07:07:46.736Z,22.75
2023-04-17T07:10:31.979Z,22.58
2023-04-17T07:13:17.668Z,22.55
2023-04-17T07:16:03.678Z,21.17
2023-04-17T07:18:52.809Z,22.08
2023-04-17T07:21:37.976Z,21.55
2023-04-17T07:24:23.336Z,21.95
2023-04-17T07:27:08.782Z,22.40
2023-04-17T07:29:56.991Z,22.50
2023-04-17T07:32:42.486Z,22.13
2023-04-17T07:35:28.359Z,22.08
2023-04-17T07:38:13.573Z,21.33
2023-04-17T07:40:59.575Z,22.33
2023-04-17T07:43:44.978Z,22.92
2023-04-17T07:46:30.614Z,23.00
2023-04-17T07:49:16.259Z,22.88
2023-04-17T07:52:02.083Z,21.10
2023-04-17T07:54:47.374Z,21.90
2023-04-17T07:57:32.897Z,21.60
2023-04-17T08:00:19.189Z,20.27
2023-04-17T08:03:04.467Z,20.00
2023-04-17T08:05:53.894Z,19.92
2023-04-17T08:08:39.406Z,20.40
2023-04-17T08:11:24.783Z,18.67
2023-04-17T08:14:11.487Z,18.90
2023-04-17T08:16:56.661Z,18.33
2023-04-17T08:19:41.917Z,18.05
2023-04-17T08:22:28.650Z,16.98
2023-04-17T08:25:14.305Z,16.73
2023-04-17T08:27:59.730Z,16.20
2023-04-17T08:30:45.102Z,15.52
2023-04-17T08:33:30.674Z,16.33
2023-04-17T08:36:16.385Z,15.75
2023-04-17T08:39:01.756Z,16.52
2023-04-17T08:41:57.382Z,16.23
2023-04-17T08:44:42.948Z,15.75
2023-04-17T08:47:28.680Z,14.48
2023-04-17T08:50:15.426Z,14.35
2023-04-17T08:53:00.541Z,14.95
2023-04-17T08:55:46.780Z,14.90
2023-04-17T08:58:36.133Z,15.02
2023-04-17T09:01:21.908Z,15.98
2023-04-17T09:04:07.723Z,15.45
2023-04-17T09:06:54.246Z,14.40
2023-04-17T09:09:53.548Z,15.05
2023-04-17T09:12:41.827Z,14.55
2023-04-17T09:15:27.207Z,14.15
2023-04-17T09:18:30.957Z,14.63
2023-04-17T09:21:18.826Z,15.02
2023-04-17T09:24:06.330Z,13.70
2023-04-17T09:26:51.798Z,14.80
2023-04-17T09:30:02.595Z,15.30
2023-04-17T09:32:48.541Z,14.80
2023-04-17T09:35:38.847Z,15.82
2023-04-17T09:38:38.366Z,16.55
2023-04-17T09:41:29.169Z,14.90
2023-04-17T09:44:26.933Z,15.48
2023-04-17T09:47:15.532Z,14.93
2023-04-17T09:50:02.657Z,15.68
2023-04-17T09:52:52.630Z,16.10
2023-04-17T09:55:41.613Z,16.83
2023-04-17T09:58:27.135Z,14.98
2023-04-17T10:01:13.989Z,16.55
2023-04-17T10:04:01.239Z,16.50
2023-04-17T10:06:47.841Z,15.77
2023-04-17T10:09:33.435Z,16.85
2023-04-17T10:12:20.282Z,16.58
2023-04-17T10:15:07.707Z,17.50
2023-04-17T10:17:56.281Z,17.05
2023-04-17T10:20:44.697Z,16.92
2023-04-17T10:23:34.633Z,16.80
2023-04-17T10:26:26.094Z,15.68
2023-04-17T10:29:12.778Z,14.82
2023-04-17T10:32:10.593Z,15.90
2023-04-17T10:34:57.169Z,16.33
2023-04-17T10:37:50.041Z,16.27
2023-04-17T10:40:37.128Z,16.60
2023-04-17T10:43:23.547Z,16.92
2023-04-17T10:46:14.177Z,16.63
2023-04-17T10:49:04.046Z,17.38
2023-04-17T10:51:49.615Z,17.75
2023-04-17T10:54:35.097Z,16.58
2023-04-17T10:57:53.444Z,16.20
2023-04-17T11:00:50.275Z,15.75
2023-04-17T11:03:39.756Z,16.27
2023-04-17T11:06:31.187Z,17.10
2023-04-17T11:09:19.833Z,16.73
2023-04-17T11:12:05.537Z,15.57
2023-04-17T11:14:50.687Z,15.48
2023-04-17T11:17:41.538Z,16.83
2023-04-17T11:20:30.058Z,16.02
2023-04-17T11:23:16.307Z,14.93
2023-04-17T11:26:01.757Z,14.77
2023-04-17T11:28:47.910Z,14.65
2023-04-17T11:31:34.154Z,14.63
2023-04-17T11:34:20.310Z,15.35
2023-04-17T11:37:05.702Z,15.45
2023-04-17T11:39:51.255Z,13.80
2023-04-17T11:42:43.902Z,14.90
2023-04-17T11:45:32.454Z,16.80
2023-04-17T11:48:22.566Z,14.90
2023-04-17T11:51:08.479Z,15.75
2023-04-17T11:53:55.570Z,16.38
2023-04-17T11:56:40.556Z,17.05
2023-04-17T11:59:39.825Z,16.27
2023-04-17T12:02:33.385Z,16.58
2023-04-17T12:05:19.866Z,17.02
2023-04-17T12:08:07.352Z,16.88
2023-04-17T12:10:52.740Z,17.55
2023-04-17T12:13:38.083Z,17.70
2023-04-17T12:16:24.971Z,16.63
2023-04-17T12:19:13.073Z,17.52
2023-04-17T12:21:59.085Z,17.13
2023-04-17T12:24:44.843Z,18.10
2023-04-17T12:27:36.415Z,17.70
2023-04-17T12:30:21.995Z,16.80
2023-04-17T12:33:07.402Z,18.80
2023-04-17T12:35:53.155Z,17.55
2023-04-17T12:38:38.606Z,17.30
2023-04-17T12:41:26.458Z,18.15
2023-04-17T12:44:12.086Z,17.85
2023-04-17T12:46:57.414Z,18.25
2023-04-17T12:49:42.957Z,18.63
2023-04-17T12:52:28.561Z,17.73
2023-04-17T12:55:14.261Z,18.55
2023-04-17T12:57:59.437Z,18.10
2023-04-17T13:00:45.390Z,18.27
2023-04-17T13:03:31.014Z,17.83
2023-04-17T13:06:16.776Z,18.60
2023-04-17T13:09:02.013Z,17.95
2023-04-17T13:11:47.602Z,18.58
2023-04-17T13:14:33.021Z,17.77
2023-04-17T13:17:18.608Z,17.42
2023-04-17T13:20:04.378Z,17.95
2023-04-17T13:22:49.939Z,17.13
2023-04-17T13:25:35.531Z,17.38
2023-04-17T13:28:20.881Z,18.88
2023-04-17T13:31:06.602Z,18.50
2023-04-17T13:33:52.238Z,18.10
2023-04-17T13:36:37.866Z,19.77
2023-04-17T13:39:23.539Z,17.45
2023-04-17T13:42:09.653Z,17.75
2023-04-17T13:44:55.546Z,18.05
2023-04-17T13:47:41.057Z,18.52
2023-04-17T13:50:26.531Z,17.83
2023-04-17T13:53:13.378Z,17.02
2023-04-17T13:55:58.798Z,17.73
2023-04-17T13:58:44.498Z,17.92
2023-04-17T14:01:29.867Z,17.10
2023-04-17T14:04:15.418Z,17.70
2023-04-17T14:07:01.234Z,17.63
2023-04-17T14:09:46.439Z,17.60
2023-04-17T14:12:32.345Z,17.40
2023-04-17T14:15:17.933Z,16.92
2023-04-17T14:18:03.505Z,16.58
2023-04-17T14:20:48.858Z,16.25
2023-04-17T14:23:34.326Z,16.73
2023-04-17T14:26:19.975Z,17.00
2023-04-17T14:29:05.693Z,17.00
2023-04-17T14:31:52.151Z,17.52
2023-04-17T14:34:37.589Z,15.63
2023-04-17T14:37:23.070Z,16.77
2023-04-17T14:40:08.796Z,15.20
2023-04-17T14:42:54.935Z,15.85
2023-04-17T14:45:40.677Z,16.50
2023-04-17T14:48:26.210Z,15.68
2023-04-17T14:51:14.306Z,17.33
2023-04-17T14:53:59.667Z,15.77
2023-04-17T14:56:45.394Z,15.35
2023-04-17T14:59:30.984Z,15.77
2023-04-17T15:02:16.563Z,15.45
2023-04-17T15:05:01.988Z,14.75
2023-04-17T15:07:47.942Z,14.65
2023-04-17T15:10:44.206Z,14.80
2023-04-17T15:13:35.881Z,14.63
2023-04-17T15:16:21.504Z,15.77
2023-04-17T15:19:06.832Z,16.58
2023-04-17T15:21:52.772Z,16.33
2023-04-17T15:24:37.966Z,14.57
2023-04-17T15:27:23.478Z,14.75
2023-04-17T15:30:09.361Z,14.38
2023-04-17T15:32:54.866Z,15.80
2023-04-17T15:35:40.224Z,14.15
2023-04-17T15:38:26.572Z,13.82
2023-04-17T15:41:12.310Z,14.30
2023-04-17T15:43:57.664Z,14.15
2023-04-17T15:46:43.198Z,13.60
2023-04-17T15:49:29.734Z,13.13
2023-04-17T15:52:15.146Z,13.82
2023-04-17T15:55:00.599Z,13.35
2023-04-17T15:57:46.296Z,13.23
2023-04-17T16:00:31.596Z,14.20
2023-04-17T16:03:17.119Z,14.23
2023-04-17T16:06:03.596Z,14.52
2023-04-17T16:08:49.043Z,13.75
2023-04-17T16:11:34.321Z,14.20
2023-04-17T16:14:20.044Z,14.70
2023-04-17T16:17:05.972Z,14.27
2023-04-17T16:19:51.304Z,13.80
2023-04-17T16:22:37.099Z,15.40
2023-04-17T16:25:22.424Z,15.07
2023-04-17T16:28:08.046Z,15.27
2023-04-17T16:30:53.077Z,15.02
2023-04-17T16:33:39.615Z,15.07
2023-04-17T16:36:25.862Z,14.57
2023-04-17T16:39:11.599Z,15.30
2023-04-17T16:41:57.696Z,14.75
2023-04-17T16:44:45.689Z,15.68
2023-04-17T16:47:31.506Z,15.40
2023-04-17T16:50:17.421Z,15.10
2023-04-17T16:53:02.750Z,15.43
2023-04-17T16:55:48.318Z,16.40
2023-04-17T16:58:33.497Z,15.18
2023-04-17T17:01:19.174Z,15.55
2023-04-17T17:04:05.187Z,15.90
2023-04-17T17:06:50.775Z,16.48
2023-04-17T17:09:36.162Z,17.08
2023-04-17T17:12:21.723Z,16.67
2023-04-17T17:15:07.864Z,16.33
2023-04-17T17:17:53.580Z,16.73
2023-04-17T17:20:38.911Z,17.00
2023-04-17T17:23:24.409Z,17.67
2023-04-17T17:26:09.734Z,16.88
2023-04-17T17:28:55.933Z,17.52
2023-04-17T17:31:41.228Z,18.00
2023-04-17T17:34:27.433Z,17.67
2023-04-17T17:37:12.953Z,17.83
2023-04-17T17:39:58.463Z,17.17
2023-04-17T17:42:45.152Z,18.08
2023-04-17T17:45:30.641Z,17.23
2023-04-17T17:48:18.022Z,18.30
2023-04-17T17:51:03.283Z,18.35
2023-04-17T17:53:49.088Z,18.75
2023-04-17T17:56:34.996Z,19.23
2023-04-17T17:59:21.393Z,19.15
2023-04-17T18:02:06.978Z,19.77
2023-04-17T18:04:52.596Z,18.90
2023-04-17T18:07:38.251Z,19.35
2023-04-17T18:10:23.669Z,18.88
2023-04-17T18:13:09.306Z,19.30
2023-04-17T18:15:55.152Z,19.50
2023-04-17T18:18:40.666Z,18.60
2023-04-17T18:21:27.356Z,18.42
2023-04-17T18:24:12.986Z,18.75
2023-04-17T18:26:58.256Z,18.88
2023-04-17T18:29:43.785Z,19.88
2023-04-17T18:32:30.989Z,19.23
2023-04-17T18:35:16.499Z,19.17
2023-04-17T18:38:02.392Z,19.05
2023-04-17T18:40:47.554Z,18.48
2023-04-17T18:43:33.301Z,18.65
2023-04-17T18:46:18.604Z,18.70
2023-04-17T18:49:04.380Z,18.25
2023-04-17T18:51:50.116Z,18.40
2023-04-17T18:54:35.573Z,18.52
2023-04-17T18:57:20.807Z,18.30
2023-04-17T19:00:06.780Z,18.48
2023-04-17T19:02:52.293Z,18.33
2023-04-17T19:05:37.901Z,20.13
2023-04-17T19:08:23.093Z,19.52
2023-04-17T19:11:08.648Z,19.42
2023-04-17T19:13:54.526Z,19.48
2023-04-17T19:16:39.886Z,20.23
2023-04-17T19:19:25.278Z,19.77
2023-04-17T19:22:10.993Z,19.25
2023-04-17T19:24:56.658Z,19.40
2023-04-17T19:27:42.007Z,19.23
2023-04-17T19:30:27.302Z,18.80
2023-04-17T19:33:12.737Z,18.92
2023-04-17T19:35:58.624Z,18.63
2023-04-17T19:38:44.179Z,20.08
2023-04-17T19:41:29.784Z,18.50
2023-04-17T19:44:15.322Z,17.60
2023-04-17T19:47:01.185Z,18.45
2023-04-17T19:49:46.356Z,17.58
2023-04-17T19:52:31.914Z,17.65
2023-04-17T19:55:17.543Z,17.00
2023-04-17T19:58:03.095Z,16.45
2023-04-17T20:00:48.644Z,17.50
2023-04-17T20:03:35.622Z,16.88
2023-04-17T20:06:21.093Z,15.85
2023-04-17T20:09:06.693Z,16.17
2023-04-17T20:11:52.265Z,16.70
2023-04-17T20:14:37.822Z,16.08
2023-04-17T20:17:23.184Z,16.67
2023-04-17T20:20:09.125Z,16.20
2023-04-17T20:22:54.367Z,16.70
2023-04-17T20:25:40.150Z,16.52
2023-04-17T20:28:28.548Z,16.63
2023-04-17T20:31:14.357Z,16.30
2023-04-17T20:33:59.841Z,15.88
2023-04-17T20:36:45.648Z,15.95
2023-04-17T20:39:30.676Z,16.35
2023-04-17T20:42:16.167Z,16.67
2023-04-17T20:45:01.521Z,16.30
2023-04-17T20:47:56.609Z,16.40
2023-04-17T20:50:42.840Z,15.73
2023-04-17T20:53:28.368Z,15.32
2023-04-17T20:56:13.770Z,15.68
2023-04-17T20:58:59.163Z,15.85
2023-04-17T21:01:44.769Z,15.60
2023-04-17T21:04:30.483Z,14.75
2023-04-17T21:07:16.778Z,15.60
2023-04-17T21:10:02.658Z,14.15
2023-04-17T21:12:47.930Z,13.98
2023-04-17T21:15:33.270Z,14.45
2023-04-17T21:18:18.849Z,14.77
2023-04-17T21:21:04.430Z,15.13
2023-04-17T21:23:49.782Z,14.25
2023-04-17T21:26:35.641Z,14.98
2023-04-17T21:29:20.852Z,14.38
2023-04-17T21:32:06.881Z,14.85
2023-04-17T21:34:52.345Z,15.35
2023-04-17T21:37:37.739Z,15.02
2023-04-17T21:40:23.286Z,15.57
2023-04-17T21:43:08.581Z,16.10
2023-04-17T21:45:56.901Z,15.88
2023-04-17T21:48:42.497Z,15.70
2023-04-17T21:51:27.852Z,16.20
2023-04-17T21:54:13.861Z,17.35
2023-04-17T21:57:00.291Z,16.35
2023-04-17T21:59:45.406Z,17.35
2023-04-17T22:02:31.743Z,16.02
2023-04-17T22:05:17.574Z,15.73
2023-04-17T22:08:03.104Z,17.48
2023-04-17T22:10:48.489Z,16.88
2023-04-17T22:13:33.928Z,16.75
2023-04-17T22:16:19.598Z,17.30
2023-04-17T22:19:05.017Z,16.27
2023-04-17T22:21:50.937Z,16.83
2023-04-17T22:24:36.577Z,16.38
2023-04-17T22:27:21.709Z,17.00
2023-04-17T22:30:07.626Z,16.35
2023-04-17T22:32:53.224Z,16.48
2023-04-17T22:35:39.006Z,17.48
2023-04-17T22:38:24.550Z,17.10
2023-04-17T22:41:09.899Z,17.05
2023-04-17T22:43:55.430Z,16.67
2023-04-17T22:46:40.916Z,15.73
2023-04-17T22:49:26.399Z,16.20
2023-04-17T22:52:11.679Z,16.05
2023-04-17T22:54:57.224Z,16.67
2023-04-17T22:57:42.653Z,16.17
2023-04-17T23:00:28.166Z,15.95
2023-04-17T23:03:14.112Z,15.68
2023-04-17T23:05:59.596Z,14.65
2023-04-17T23:08:45.212Z,13.60
2023-04-17T23:11:34.175Z,13.48
2023-04-17T23:14:19.677Z,14.00
2023-04-17T23:17:05.925Z,14.20
2023-04-17T23:19:51.601Z,13.23
2023-04-17T23:22:37.226Z,13.73
2023-04-17T23:25:22.531Z,12.75
2023-04-17T23:28:08.608Z,12.65
2023-04-17T23:30:54.107Z,12.80
2023-04-17T23:33:39.609Z,12.60
2023-04-17T23:36:25.618Z,11.32
2023-04-17T23:39:11.100Z,11.70
2023-04-17T23:41:57.534Z,12.13
2023-04-17T23:44:42.955Z,11.45
2023-04-17T23:47:28.632Z,11.20
2023-04-17T23:50:14.157Z,10.55
2023-04-17T23:52:59.696Z,11.27
2023-04-17T23:55:45.368Z,10.60
2023-04-17T23:58:30.742Z,10.52
